createdAt,value
2023-11-07T00:01:02.870Z,7.03
2023-11-07T00:03:05.766Z,6.32
2023-11-07T00:05:10.650Z,6.32
2023-11-07T00:07:14.056Z,8.02
2023-11-07T00:09:17.743Z,6.93
2023-11-07T00:11:20.870Z,8.00
2023-11-07T00:13:23.739Z,7.30
2023-11-07T00:15:26.848Z,7.32
2023-11-07T00:17:29.941Z,6.97
2023-11-07T00:19:32.808Z,8.07
2023-11-07T00:21:35.775Z,8.25
2023-11-07T00:23:39.246Z,7.82
2023-11-07T00:25:42.077Z,8.65
2023-11-07T00:27:44.860Z,8.27
2023-11-07T00:29:48.292Z,8.38
2023-11-07T00:31:53.955Z,9.70
2023-11-07T00:33:57.203Z,8.90
2023-11-07T00:36:03.550Z,7.82
2023-11-07T00:38:06.401Z,7.97
2023-11-07T00:40:11.173Z,8.60
2023-11-07T00:42:13.939Z,7.80
2023-11-07T00:44:16.723Z,7.60
2023-11-07T00:46:20.055Z,8.20
2023-11-07T00:48:22.851Z,9.40
2023-11-07T00:50:25.561Z,7.53
2023-11-07T00:52:28.579Z,9.13
2023-11-07T00:54:31.332Z,7.40
2023-11-07T00:56:34.150Z,7.88
2023-11-07T00:58:37.089Z,7.38
2023-11-07T01:00:39.924Z,8.68
2023-11-07T01:02:43.178Z,7.97
2023-11-07T01:04:49.492Z,7.40
2023-11-07T01:06:52.544Z,7.63
2023-11-07T01:08:55.509Z,8.73
2023-11-07T01:10:58.305Z,8.20
2023-11-07T01:13:01.177Z,7.63
2023-11-07T01:15:07.121Z,8.70
2023-11-07T01:17:09.877Z,9.75
2023-11-07T01:19:12.683Z,7.35
2023-11-07T01:21:15.526Z,7.43
2023-11-07T01:23:18.268Z,7.57
2023-11-07T01:25:21.052Z,7.55
2023-11-07T01:27:23.793Z,7.03
2023-11-07T01:29:26.552Z,8.48
2023-11-07T01:31:29.475Z,7.85
2023-11-07T01:33:32.288Z,8.27
2023-11-07T01:35:35.388Z,7.97
2023-11-07T01:37:38.489Z,7.68
2023-11-07T01:39:41.453Z,7.95
2023-11-07T01:41:44.276Z,7.60
2023-11-07T01:43:47.485Z,7.57
2023-11-07T01:45:50.341Z,8.07
2023-11-07T01:47:53.235Z,7.60
2023-11-07T01:49:57.397Z,7.57
2023-11-07T01:52:00.525Z,8.38
2023-11-07T01:54:05.177Z,7.20
2023-11-07T01:56:09.380Z,7.78
2023-11-07T01:58:13.568Z,7.22
2023-11-07T02:00:17.168Z,7.45
2023-11-07T02:02:20.755Z,8.32
2023-11-07T02:04:24.607Z,7.30
2023-11-07T02:06:27.500Z,8.50
2023-11-07T02:08:30.423Z,8.70
2023-11-07T02:10:33.409Z,7.47
2023-11-07T02:12:36.941Z,6.70
2023-11-07T02:14:41.524Z,7.65
2023-11-07T02:16:45.513Z,8.15
2023-11-07T02:18:48.498Z,7.57
2023-11-07T02:20:53.166Z,7.93
2023-11-07T02:23:05.815Z,7.07
2023-11-07T02:25:14.217Z,7.70
2023-11-07T02:27:19.245Z,7.30
2023-11-07T02:29:22.909Z,8.15
2023-11-07T02:31:26.101Z,6.68
2023-11-07T02:33:28.962Z,7.05
2023-11-07T02:35:32.865Z,8.10
2023-11-07T02:37:36.066Z,7.18
2023-11-07T02:39:38.799Z,7.80
2023-11-07T02:41:43.120Z,7.70
2023-11-07T02:43:45.850Z,7.68
2023-11-07T02:45:49.590Z,7.95
2023-11-07T02:47:52.624Z,7.13
2023-11-07T02:49:56.206Z,7.90
2023-11-07T02:51:59.029Z,7.07
2023-11-07T02:54:02.394Z,7.40
2023-11-07T02:56:06.128Z,8.45
2023-11-07T02:58:08.947Z,7.88
2023-11-07T03:00:14.338Z,7.47
2023-11-07T03:02:18.927Z,7.95
2023-11-07T03:04:21.838Z,7.70
2023-11-07T03:06:24.693Z,8.52
2023-11-07T03:08:27.402Z,9.23
2023-11-07T03:10:30.105Z,7.90
2023-11-07T03:12:32.816Z,7.68
2023-11-07T03:14:39.005Z,7.53
2023-11-07T03:16:42.619Z,7.90
2023-11-07T03:18:45.573Z,7.70
2023-11-07T03:20:48.469Z,8.07
2023-11-07T03:22:51.465Z,7.40
2023-11-07T03:24:55.086Z,8.25
2023-11-07T03:26:58.060Z,7.00
2023-11-07T03:29:00.764Z,8.38
2023-11-07T03:31:03.725Z,7.90
2023-11-07T03:33:06.974Z,8.30
2023-11-07T03:35:10.348Z,8.07
2023-11-07T03:37:13.241Z,7.75
2023-11-07T03:39:16.985Z,7.88
2023-11-07T03:41:20.321Z,8.20
2023-11-07T03:43:23.769Z,7.85
2023-11-07T03:45:26.782Z,7.15
2023-11-07T03:47:29.515Z,7.80
2023-11-07T03:49:32.847Z,8.73
2023-11-07T03:51:35.837Z,8.75
2023-11-07T03:53:38.514Z,6.60
2023-11-07T03:55:41.256Z,7.75
2023-11-07T03:57:44.031Z,8.65
2023-11-07T03:59:46.826Z,7.57
2023-11-07T04:01:49.795Z,7.53
2023-11-07T04:03:52.593Z,8.82
2023-11-07T04:05:55.601Z,7.97
2023-11-07T04:07:59.057Z,7.55
2023-11-07T04:10:06.926Z,7.97
2023-11-07T04:12:10.400Z,8.88
2023-11-07T04:14:13.555Z,8.93
2023-11-07T04:16:16.438Z,7.53
2023-11-07T04:18:20.342Z,8.10
2023-11-07T04:20:24.304Z,8.13
2023-11-07T04:22:27.104Z,7.93
2023-11-07T04:24:30.801Z,9.20
2023-11-07T04:26:33.952Z,8.27
2023-11-07T04:28:39.144Z,8.93
2023-11-07T04:30:42.010Z,7.80
2023-11-07T04:32:45.050Z,9.18
2023-11-07T04:34:49.061Z,8.68
2023-11-07T04:37:01.226Z,8.30
2023-11-07T04:39:04.249Z,8.68
2023-11-07T04:41:07.110Z,8.45
2023-11-07T04:43:09.853Z,7.95
2023-11-07T04:45:12.803Z,8.90
2023-11-07T04:47:17.431Z,8.15
2023-11-07T04:49:20.350Z,9.45
2023-11-07T04:51:24.122Z,8.30
2023-11-07T04:53:28.768Z,8.27
2023-11-07T04:55:32.995Z,8.32
2023-11-07T04:57:35.662Z,8.75
2023-11-07T04:59:38.502Z,8.57
2023-11-07T05:01:42.142Z,8.20
2023-11-07T05:03:44.998Z,7.53
2023-11-07T05:05:48.881Z,8.88
2023-11-07T05:07:52.145Z,9.73
2023-11-07T05:09:59.107Z,8.98
2023-11-07T05:12:04.187Z,7.85
2023-11-07T05:14:09.502Z,7.32
2023-11-07T05:16:12.645Z,10.23
2023-11-07T05:18:16.538Z,9.00
2023-11-07T05:20:19.618Z,9.50
2023-11-07T05:22:22.313Z,9.75
2023-11-07T05:24:25.672Z,7.85
2023-11-07T05:26:28.560Z,8.65
2023-11-07T05:28:31.378Z,9.40
2023-11-07T05:30:34.070Z,7.93
2023-11-07T05:32:36.929Z,7.95
2023-11-07T05:34:41.443Z,8.77
2023-11-07T05:36:44.258Z,9.00
2023-11-07T05:38:47.041Z,8.75
2023-11-07T05:40:50.408Z,6.65
2023-11-07T05:42:56.055Z,7.47
2023-11-07T05:45:00.575Z,7.57
2023-11-07T05:47:05.782Z,9.20
2023-11-07T05:49:08.958Z,7.75
2023-11-07T05:51:12.460Z,7.72
2023-11-07T05:53:15.175Z,9.18
2023-11-07T05:55:17.951Z,9.02
2023-11-07T05:57:21.671Z,8.23
2023-11-07T05:59:27.373Z,7.75
2023-11-07T06:01:30.406Z,6.40
2023-11-07T06:03:33.305Z,7.63
2023-11-07T06:05:36.729Z,8.32
2023-11-07T06:07:39.986Z,6.60
2023-11-07T06:09:42.749Z,6.60
2023-11-07T06:11:45.454Z,7.65
2023-11-07T06:13:48.247Z,8.60
2023-11-07T06:15:51.248Z,7.65
2023-11-07T06:17:54.104Z,6.93
2023-11-07T06:19:56.809Z,6.95
2023-11-07T06:21:59.482Z,6.78
2023-11-07T06:24:02.285Z,7.93
2023-11-07T06:26:07.836Z,7.07
2023-11-07T06:28:10.681Z,7.43
2023-11-07T06:30:14.138Z,6.50
2023-11-07T06:32:16.930Z,6.70
2023-11-07T06:34:19.984Z,7.43
2023-11-07T06:36:25.501Z,7.15
2023-11-07T06:38:29.328Z,6.32
2023-11-07T06:40:32.165Z,6.05
2023-11-07T06:42:35.961Z,6.68
2023-11-07T06:44:38.901Z,6.35
2023-11-07T06:46:44.778Z,5.35
2023-11-07T06:48:48.305Z,5.88
2023-11-07T06:50:51.223Z,5.85
2023-11-07T06:52:55.435Z,6.28
2023-11-07T06:54:58.252Z,6.18
2023-11-07T06:57:01.478Z,6.00
2023-11-07T06:59:04.524Z,5.68
2023-11-07T07:01:07.245Z,6.32
2023-11-07T07:03:10.270Z,6.40
2023-11-07T07:05:15.036Z,5.22
2023-11-07T07:07:18.391Z,6.53
2023-11-07T07:09:21.128Z,4.72
2023-11-07T07:11:23.990Z,5.45
2023-11-07T07:13:26.714Z,4.93
2023-11-07T07:15:29.407Z,5.43
2023-11-07T07:17:32.202Z,4.68
2023-11-07T07:19:39.076Z,4.25
2023-11-07T07:21:42.140Z,4.43
2023-11-07T07:23:48.684Z,3.95
2023-11-07T07:26:01.196Z,4.50
2023-11-07T07:28:05.985Z,3.80
2023-11-07T07:30:10.854Z,4.30
2023-11-07T07:32:13.697Z,3.72
2023-11-07T07:34:16.754Z,4.75
2023-11-07T07:36:19.943Z,3.85
2023-11-07T07:38:26.191Z,4.20
2023-11-07T07:40:30.954Z,3.83
2023-11-07T07:42:34.732Z,3.17
2023-11-07T07:44:38.213Z,3.50
2023-11-07T07:46:43.942Z,3.45
2023-11-07T07:48:47.136Z,3.30
2023-11-07T07:50:52.871Z,3.20
2023-11-07T07:52:56.038Z,2.90
2023-11-07T07:55:09.820Z,3.15
2023-11-07T07:57:19.314Z,2.67
2023-11-07T07:59:24.545Z,3.80
2023-11-07T08:01:27.693Z,3.13
2023-11-07T08:03:30.454Z,4.00
2023-11-07T08:05:41.408Z,2.80
2023-11-07T08:09:51.894Z,3.33
2023-11-07T08:12:09.913Z,3.13
2023-11-07T08:14:12.871Z,3.00
2023-11-07T08:16:16.120Z,2.75
2023-11-07T08:18:19.275Z,3.20
2023-11-07T08:20:24.203Z,3.38
2023-11-07T08:22:26.997Z,2.83
2023-11-07T08:24:29.713Z,3.38
2023-11-07T08:26:35.062Z,2.78
2023-11-07T08:28:37.994Z,3.97
2023-11-07T08:30:45.564Z,3.10
2023-11-07T08:32:48.860Z,3.03
2023-11-07T08:34:52.560Z,2.72
2023-11-07T08:37:04.742Z,3.45
2023-11-07T08:39:23.358Z,2.97
2023-11-07T08:41:27.000Z,2.92
2023-11-07T08:43:30.295Z,2.70
2023-11-07T08:45:34.567Z,3.17
2023-11-07T08:47:37.952Z,2.67
2023-11-07T08:49:40.631Z,2.92
2023-11-07T08:51:44.339Z,2.58
2023-11-07T08:53:47.096Z,2.70
2023-11-07T08:55:51.710Z,2.85
2023-11-07T08:57:55.054Z,2.25
2023-11-07T08:59:57.792Z,2.33
2023-11-07T09:02:00.538Z,2.35
2023-11-07T09:04:05.478Z,2.88
2023-11-07T09:06:08.298Z,2.38
2023-11-07T09:08:11.050Z,2.05
2023-11-07T09:10:14.290Z,2.38
2023-11-07T09:12:17.117Z,2.65
2023-11-07T09:14:20.329Z,3.00
2023-11-07T09:16:23.031Z,2.67
2023-11-07T09:18:27.756Z,2.75
2023-11-07T09:20:30.919Z,3.13
2023-11-07T09:22:33.621Z,4.20
2023-11-07T09:24:37.017Z,3.83
2023-11-07T09:26:39.851Z,3.20
2023-11-07T09:28:42.552Z,3.80
2023-11-07T09:30:45.847Z,3.53
2023-11-07T09:32:50.038Z,3.97
2023-11-07T09:34:53.338Z,4.07
2023-11-07T09:36:56.081Z,3.67
2023-11-07T09:38:58.793Z,4.10
2023-11-07T09:41:01.507Z,4.25
2023-11-07T09:43:04.315Z,4.43
2023-11-07T09:45:12.700Z,4.05
2023-11-07T09:47:15.822Z,4.72
2023-11-07T09:49:19.172Z,4.45
2023-11-07T09:51:23.366Z,4.32
2023-11-07T09:53:29.504Z,4.28
2023-11-07T09:55:33.412Z,4.90
2023-11-07T09:57:40.941Z,4.05
2023-11-07T09:59:55.518Z,4.57
2023-11-07T10:01:59.104Z,4.05
2023-11-07T10:04:04.312Z,4.45
2023-11-07T10:06:08.033Z,3.88
2023-11-07T10:08:10.850Z,3.53
2023-11-07T10:10:13.712Z,4.07
2023-11-07T10:12:17.693Z,3.95
2023-11-07T10:14:23.948Z,3.47
2023-11-07T10:16:37.774Z,3.30
2023-11-07T10:18:51.340Z,2.92
2023-11-07T10:20:56.516Z,2.55
2023-11-07T10:23:00.293Z,2.17
2023-11-07T10:25:04.232Z,2.00
2023-11-07T10:27:07.127Z,2.15
2023-11-07T10:29:19.299Z,2.70
2023-11-07T10:31:23.800Z,2.17
2023-11-07T10:33:31.286Z,1.92
2023-11-07T10:35:51.945Z,2.25
2023-11-07T10:37:54.675Z,2.35
2023-11-07T10:39:58.460Z,1.65
2023-11-07T10:42:18.631Z,1.70
2023-11-07T10:44:31.790Z,1.80
2023-11-07T10:46:34.730Z,1.90
2023-11-07T10:48:43.167Z,1.42
2023-11-07T10:50:46.280Z,1.67
2023-11-07T10:52:49.362Z,1.77
2023-11-07T10:54:52.198Z,1.60
2023-11-07T10:56:56.056Z,1.48
2023-11-07T10:59:02.864Z,1.33
2023-11-07T11:01:07.024Z,1.58
2023-11-07T11:03:14.700Z,2.00
2023-11-07T11:05:18.558Z,1.42
2023-11-07T11:07:22.460Z,1.60
2023-11-07T11:09:26.544Z,1.65
2023-11-07T11:11:35.253Z,1.55
2023-11-07T11:13:38.627Z,1.00
2023-11-07T11:15:42.208Z,1.08
2023-11-07T11:18:19.822Z,1.15
2023-11-07T11:20:28.552Z,1.88
2023-11-07T11:22:48.713Z,1.40
2023-11-07T11:25:12.134Z,1.38
2023-11-07T11:27:31.091Z,1.35
2023-11-07T11:29:33.924Z,1.00
2023-11-07T11:31:37.023Z,0.80
2023-11-07T11:33:40.488Z,5.13
2023-11-07T11:35:46.086Z,1.40
2023-11-07T11:38:14.310Z,1.30
2023-11-07T11:40:52.237Z,0.82
2023-11-07T11:43:07.793Z,0.70
2023-11-07T11:45:40.667Z,1.10
2023-11-07T11:47:52.773Z,1.20
2023-11-07T11:50:17.573Z,0.63
2023-11-07T11:52:41.353Z,0.80
2023-11-07T11:54:44.019Z,0.70
2023-11-07T11:56:51.606Z,0.90
2023-11-07T11:59:30.133Z,0.70
2023-11-07T12:01:53.998Z,0.40
2023-11-07T12:04:00.538Z,0.80
2023-11-07T12:06:08.113Z,0.85
2023-11-07T12:08:34.174Z,0.77
2023-11-07T12:10:37.158Z,0.77
2023-11-07T12:12:40.726Z,0.60
2023-11-07T12:15:01.013Z,0.50
2023-11-07T12:17:04.105Z,0.40
2023-11-07T12:19:08.195Z,0.63
2023-11-07T12:21:11.233Z,0.65
2023-11-07T12:23:16.528Z,0.90
2023-11-07T12:25:21.639Z,0.65
2023-11-07T12:27:25.094Z,0.90
2023-11-07T12:29:32.061Z,0.90
2023-11-07T12:31:36.082Z,0.40
2023-11-07T12:33:43.216Z,0.98
2023-11-07T12:35:48.002Z,0.50
2023-11-07T12:37:51.989Z,0.50
2023-11-07T12:39:56.358Z,0.75
2023-11-07T12:42:01.334Z,0.70
2023-11-07T12:44:14.799Z,0.50
2023-11-07T12:46:18.705Z,0.70
2023-11-07T12:48:28.668Z,0.60
2023-11-07T12:50:34.440Z,0.50
2023-11-07T12:52:40.690Z,0.50
2023-11-07T12:54:43.489Z,0.70
2023-11-07T12:56:46.691Z,0.68
2023-11-07T12:58:49.840Z,0.50
2023-11-07T13:01:08.620Z,0.60
2023-11-07T13:03:13.436Z,0.40
2023-11-07T13:05:20.018Z,0.93
2023-11-07T13:07:22.989Z,0.60
2023-11-07T13:09:34.972Z,0.40
2023-11-07T13:11:40.831Z,0.60
2023-11-07T13:13:53.184Z,0.80
2023-11-07T13:15:57.514Z,0.70
2023-11-07T13:18:00.422Z,0.52
2023-11-07T13:20:08.072Z,0.80
2023-11-07T13:22:11.433Z,0.73
2023-11-07T13:24:14.402Z,0.60
2023-11-07T13:26:17.364Z,0.80
2023-11-07T13:28:21.902Z,0.80
2023-11-07T13:30:24.859Z,0.88
2023-11-07T13:32:27.642Z,0.70
2023-11-07T13:34:30.525Z,0.95
2023-11-07T13:36:33.463Z,1.00
2023-11-07T13:38:36.420Z,1.05
2023-11-07T13:40:39.242Z,1.10
2023-11-07T13:42:44.525Z,1.10
2023-11-07T13:44:47.706Z,0.93
2023-11-07T13:47:49.511Z,1.58
2023-11-07T13:50:16.081Z,1.67
2023-11-07T13:52:19.269Z,2.65
2023-11-07T13:54:22.931Z,1.38
2023-11-07T13:56:29.332Z,1.30
2023-11-07T13:58:32.596Z,1.48
2023-11-07T14:00:35.346Z,1.30
2023-11-07T14:02:41.555Z,1.17
2023-11-07T14:04:44.302Z,0.95
2023-11-07T14:06:47.482Z,0.93
2023-11-07T14:08:50.883Z,1.92
2023-11-07T14:10:53.692Z,0.95
2023-11-07T14:12:56.972Z,1.45
2023-11-07T14:14:59.819Z,1.02
2023-11-07T14:17:03.001Z,1.55
2023-11-07T14:19:09.477Z,1.10
2023-11-07T14:21:16.239Z,0.98
2023-11-07T14:23:19.747Z,1.20
2023-11-07T14:25:24.926Z,1.13
2023-11-07T14:27:27.784Z,1.02
2023-11-07T14:29:46.846Z,1.05
2023-11-07T14:31:53.325Z,1.23
2023-11-07T14:33:56.150Z,0.95
2023-11-07T14:36:00.270Z,0.80
2023-11-07T14:38:04.214Z,1.00
2023-11-07T14:40:11.662Z,0.80
2023-11-07T14:42:17.603Z,1.30
2023-11-07T14:44:20.525Z,1.00
2023-11-07T14:46:23.204Z,1.45
2023-11-07T14:48:26.684Z,1.85
2023-11-07T14:50:31.664Z,1.00
2023-11-07T14:52:34.555Z,1.77
2023-11-07T14:54:37.608Z,1.35
2023-11-07T14:56:41.692Z,1.95
2023-11-07T14:58:47.085Z,1.30
2023-11-07T15:00:50.862Z,1.52
2023-11-07T15:02:58.596Z,1.23
2023-11-07T15:05:02.498Z,1.67
2023-11-07T15:07:06.911Z,1.92
2023-11-07T15:09:10.406Z,2.47
2023-11-07T15:11:14.072Z,3.22
2023-11-07T15:13:17.033Z,2.70
2023-11-07T15:15:20.838Z,2.90
2023-11-07T15:17:23.838Z,3.67
2023-11-07T15:19:26.824Z,2.40
2023-11-07T15:21:29.620Z,3.55
2023-11-07T15:23:35.462Z,1.48
2023-11-07T15:25:39.259Z,1.75
2023-11-07T15:27:46.455Z,1.80
2023-11-07T15:29:50.412Z,2.35
2023-11-07T15:31:53.415Z,2.22
2023-11-07T15:33:56.409Z,2.05
2023-11-07T15:36:01.571Z,1.48
2023-11-07T15:38:07.152Z,1.77
2023-11-07T15:40:14.760Z,1.60
2023-11-07T15:42:19.932Z,2.10
2023-11-07T15:44:22.842Z,2.08
2023-11-07T15:46:28.070Z,2.10
2023-11-07T15:48:30.925Z,1.60
2023-11-07T15:50:33.630Z,1.52
2023-11-07T15:52:36.458Z,1.63
2023-11-07T15:54:39.540Z,1.35
2023-11-07T15:56:49.118Z,1.38
2023-11-07T15:58:51.828Z,1.50
2023-11-07T16:00:55.267Z,1.70
2023-11-07T16:02:58.231Z,1.73
2023-11-07T16:05:01.197Z,2.00
2023-11-07T16:07:06.246Z,2.33
2023-11-07T16:09:10.031Z,1.70
2023-11-07T16:11:13.169Z,1.98
2023-11-07T16:13:15.942Z,1.65
2023-11-07T16:15:19.508Z,2.13
2023-11-07T16:17:22.266Z,1.70
2023-11-07T16:19:26.286Z,1.73
2023-11-07T16:21:29.933Z,2.65
2023-11-07T16:23:34.198Z,2.28
2023-11-07T16:25:38.600Z,2.67
2023-11-07T16:27:41.512Z,2.40
2023-11-07T16:29:44.320Z,2.53
2023-11-07T16:31:47.521Z,2.35
2023-11-07T16:33:50.424Z,2.72
2023-11-07T16:35:53.424Z,2.30
2023-11-07T16:37:56.164Z,3.65
2023-11-07T16:39:58.972Z,3.90
2023-11-07T16:42:03.062Z,2.70
2023-11-07T16:44:06.396Z,3.25
2023-11-07T16:46:16.173Z,2.75
2023-11-07T16:48:19.166Z,3.30
2023-11-07T16:50:22.113Z,2.70
2023-11-07T16:52:25.043Z,5.85
2023-11-07T16:54:27.864Z,2.88
2023-11-07T16:56:30.619Z,5.15
2023-11-07T16:58:34.369Z,3.88
2023-11-07T17:00:38.227Z,6.40
2023-11-07T17:02:42.428Z,4.70
2023-11-07T17:04:46.204Z,5.78
2023-11-07T17:06:49.295Z,8.75
2023-11-07T17:08:52.216Z,5.22
2023-11-07T17:10:54.968Z,4.82
2023-11-07T17:12:57.835Z,6.03
2023-11-07T17:15:00.856Z,5.47
2023-11-07T17:17:06.907Z,7.55
2023-11-07T17:19:09.944Z,5.30
2023-11-07T17:21:12.802Z,6.15
2023-11-07T17:23:16.622Z,4.25
2023-11-07T17:25:19.422Z,4.40
2023-11-07T17:27:22.211Z,7.65
2023-11-07T17:29:25.774Z,5.50
2023-11-07T17:31:30.322Z,5.60
2023-11-07T17:33:33.711Z,7.35
2023-11-07T17:35:37.392Z,4.35
2023-11-07T17:37:41.517Z,6.13
2023-11-07T17:39:44.505Z,4.72
2023-11-07T17:41:48.050Z,4.47
2023-11-07T17:43:50.958Z,3.88
2023-11-07T17:45:54.075Z,4.90
2023-11-07T17:47:57.660Z,4.63
2023-11-07T17:50:02.777Z,5.13
2023-11-07T17:52:09.790Z,4.18
2023-11-07T17:54:13.399Z,4.30
2023-11-07T17:56:16.637Z,4.22
2023-11-07T17:58:19.629Z,4.72
2023-11-07T18:02:28.213Z,5.03
2023-11-07T18:04:31.536Z,4.40
2023-11-07T18:06:34.623Z,5.25
2023-11-07T18:08:39.184Z,5.65
2023-11-07T18:10:43.388Z,4.90
2023-11-07T18:12:46.328Z,4.38
2023-11-07T18:14:49.299Z,4.55
2023-11-07T18:16:52.898Z,4.88
2023-11-07T18:18:58.423Z,5.70
2023-11-07T18:21:04.504Z,5.03
2023-11-07T18:23:11.023Z,5.55
2023-11-07T18:25:14.421Z,5.82
2023-11-07T18:27:19.607Z,4.65
2023-11-07T18:29:22.386Z,4.80
2023-11-07T18:31:25.326Z,5.18
2023-11-07T18:33:28.133Z,4.63
2023-11-07T18:35:31.021Z,4.43
2023-11-07T18:37:34.995Z,5.63
2023-11-07T18:39:40.787Z,5.05
2023-11-07T18:41:43.958Z,5.25
2023-11-07T18:43:46.783Z,4.82
2023-11-07T18:45:49.646Z,5.65
2023-11-07T18:47:52.535Z,5.68
2023-11-07T18:49:55.800Z,5.78
2023-11-07T18:51:59.167Z,5.32
2023-11-07T18:54:02.023Z,5.25
2023-11-07T18:56:12.326Z,5.25
2023-11-07T18:58:17.623Z,5.13
2023-11-07T19:00:22.477Z,5.10
2023-11-07T19:02:31.443Z,5.32
2023-11-07T19:04:35.093Z,5.82
2023-11-07T19:06:38.102Z,4.82
2023-11-07T19:08:40.867Z,4.63
2023-11-07T19:10:43.833Z,5.32
2023-11-07T19:12:50.169Z,4.68
2023-11-07T19:14:55.796Z,5.63
2023-11-07T19:16:58.834Z,5.85
2023-11-07T19:19:01.954Z,5.28
2023-11-07T19:21:05.518Z,6.10
2023-11-07T19:23:08.462Z,5.72
2023-11-07T19:25:12.215Z,5.82
2023-11-07T19:27:17.803Z,5.80
2023-11-07T19:29:22.310Z,5.57
2023-11-07T19:31:27.509Z,6.10
2023-11-07T19:33:40.689Z,6.88
2023-11-07T19:35:44.026Z,5.55
2023-11-07T19:37:49.430Z,6.35
2023-11-07T19:39:54.675Z,6.40
2023-11-07T19:42:03.187Z,5.57
2023-11-07T19:44:06.824Z,6.50
2023-11-07T19:46:10.354Z,5.90
2023-11-07T19:48:13.279Z,5.70
2023-11-07T19:50:18.594Z,5.47
2023-11-07T19:52:22.852Z,6.22
2023-11-07T19:54:25.847Z,5.85
2023-11-07T19:56:29.327Z,6.20
2023-11-07T19:58:32.123Z,5.20
2023-11-07T20:00:35.606Z,5.90
2023-11-07T20:02:40.172Z,6.97
2023-11-07T20:04:43.446Z,5.80
2023-11-07T20:06:48.261Z,6.22
2023-11-07T20:08:51.581Z,6.13
2023-11-07T20:10:54.517Z,5.97
2023-11-07T20:12:57.596Z,6.53
2023-11-07T20:15:07.483Z,6.13
2023-11-07T20:17:17.770Z,6.03
2023-11-07T20:19:20.638Z,6.25
2023-11-07T20:21:23.848Z,6.57
2023-11-07T20:23:26.647Z,6.57
2023-11-07T20:25:29.423Z,6.43
2023-11-07T20:27:32.439Z,7.57
2023-11-07T20:29:36.262Z,6.60
2023-11-07T20:31:38.955Z,6.78
2023-11-07T20:33:47.381Z,6.15
2023-11-07T20:35:52.835Z,6.68
2023-11-07T20:37:56.411Z,7.10
2023-11-07T20:39:59.171Z,6.35
2023-11-07T20:42:02.338Z,6.43
2023-11-07T20:44:05.176Z,6.85
2023-11-07T20:46:18.450Z,7.80
2023-11-07T20:48:26.581Z,7.93
2023-11-07T20:50:30.023Z,8.82
2023-11-07T20:52:36.911Z,7.57
2023-11-07T20:54:41.011Z,8.93
2023-11-07T20:56:44.807Z,7.47
2023-11-07T20:58:47.824Z,7.93
2023-11-07T21:00:51.913Z,7.90
2023-11-07T21:02:55.175Z,6.57
2023-11-07T21:04:58.139Z,8.90
2023-11-07T21:07:01.162Z,9.93
2023-11-07T21:09:04.241Z,8.55
2023-11-07T21:11:12.285Z,9.48
2023-11-07T21:13:16.700Z,10.02
2023-11-07T21:15:19.702Z,8.57
2023-11-07T21:17:22.923Z,9.57
2023-11-07T21:19:27.197Z,7.80
2023-11-07T21:21:30.682Z,8.55
2023-11-07T21:23:33.555Z,10.45
2023-11-07T21:25:37.053Z,9.18
2023-11-07T21:27:39.884Z,10.90
2023-11-07T21:29:43.105Z,9.55
2023-11-07T21:31:48.122Z,11.70
2023-11-07T21:33:51.334Z,8.75
2023-11-07T21:35:55.646Z,7.63
2023-11-07T21:37:58.390Z,11.00
2023-11-07T21:40:01.545Z,10.20
2023-11-07T21:42:06.137Z,8.40
2023-11-07T21:44:09.149Z,8.77
2023-11-07T21:46:12.437Z,8.82
2023-11-07T21:48:17.256Z,8.65
2023-11-07T21:50:20.525Z,7.75
2023-11-07T21:52:23.567Z,8.30
2023-11-07T21:54:27.299Z,8.70
2023-11-07T21:56:33.307Z,8.00
2023-11-07T21:58:42.372Z,8.35
2023-11-07T22:00:45.598Z,10.15
2023-11-07T22:02:48.557Z,8.52
2023-11-07T22:04:51.557Z,8.27
2023-11-07T22:06:55.459Z,8.50
2023-11-07T22:08:58.608Z,9.82
2023-11-07T22:11:01.399Z,8.57
2023-11-07T22:13:04.993Z,8.20
2023-11-07T22:15:11.576Z,9.20
2023-11-07T22:17:14.470Z,10.15
2023-11-07T22:19:17.208Z,10.80
2023-11-07T22:21:20.237Z,12.75
2023-11-07T22:23:24.625Z,11.27
2023-11-07T22:25:27.321Z,12.07
2023-11-07T22:27:30.156Z,8.80
2023-11-07T22:29:32.970Z,9.27
2023-11-07T22:31:35.665Z,9.90
2023-11-07T22:33:39.720Z,12.18
2023-11-07T22:35:45.880Z,9.63
2023-11-07T22:37:59.027Z,8.57
2023-11-07T22:40:10.270Z,7.88
2023-11-07T22:42:15.553Z,8.20
2023-11-07T22:44:19.960Z,9.05
2023-11-07T22:46:31.125Z,7.22
2023-11-07T22:48:37.419Z,9.05
2023-11-07T22:50:40.409Z,7.65
2023-11-07T22:52:43.528Z,9.30
2023-11-07T22:54:46.304Z,8.18
2023-11-07T22:56:48.984Z,8.90
2023-11-07T22:58:52.022Z,8.32
2023-11-07T23:00:57.142Z,8.05
2023-11-07T23:03:00.360Z,8.52
2023-11-07T23:05:04.358Z,9.43
2023-11-07T23:07:07.968Z,8.82
2023-11-07T23:09:13.075Z,9.13
2023-11-07T23:11:16.093Z,8.85
2023-11-07T23:13:19.248Z,8.65
2023-11-07T23:15:22.574Z,7.47
2023-11-07T23:17:25.975Z,7.55
2023-11-07T23:19:30.349Z,7.90
2023-11-07T23:21:33.140Z,8.68
2023-11-07T23:23:35.858Z,9.35
2023-11-07T23:25:38.828Z,8.95
2023-11-07T23:27:41.539Z,8.77
2023-11-07T23:29:45.774Z,7.45
2023-11-07T23:31:51.045Z,8.98
2023-11-07T23:33:54.955Z,8.90
2023-11-07T23:35:57.893Z,9.13
2023-11-07T23:38:00.732Z,8.70
2023-11-07T23:40:13.261Z,7.80
2023-11-07T23:42:18.287Z,9.15
2023-11-07T23:44:21.139Z,8.77
2023-11-07T23:46:23.774Z,8.13
2023-11-07T23:48:27.149Z,9.15
2023-11-07T23:50:29.890Z,8.73
2023-11-07T23:52:32.553Z,8.82
2023-11-07T23:54:35.380Z,9.00
2023-11-07T23:56:39.427Z,9.50
